sensor_id;sensor_type;location;lat;lon;timestamp;P1;durP1;ratioP1;P2;durP2;ratioP2
11269;SDS011;5692;48.956;9.200;2023-07-13T00:02:14;247.23;;;235.40;;
11269;SDS011;5692;48.956;9.200;2023-07-13T00:04:40;255.18;;;242.98;;
11269;SDS011;5692;48.956;9.200;2023-07-13T00:07:07;256.60;;;244.33;;
11269;SDS011;5692;48.956;9.200;2023-07-13T00:09:33;276.27;;;263.08;;
11269;SDS011;5692;48.956;9.200;2023-07-13T00:11:59;265.87;;;253.17;;
11269;SDS011;5692;48.956;9.200;2023-07-13T00:14:26;273.05;;;260.00;;
11269;SDS011;5692;48.956;9.200;2023-07-13T00:16:52;275.15;;;262.00;;
11269;SDS011;5692;48.956;9.200;2023-07-13T00:19:18;274.77;;;261.63;;
11269;SDS011;5692;48.956;9.200;2023-07-13T00:21:44;260.23;;;247.80;;
11269;SDS011;5692;48.956;9.200;2023-07-13T00:24:13;265.20;;;252.52;;
11269;SDS011;5692;48.956;9.200;2023-07-13T00:26:40;247.23;;;235.40;;
11269;SDS011;5692;48.956;9.200;2023-07-13T00:29:09;233.77;;;222.60;;
11269;SDS011;5692;48.956;9.200;2023-07-13T00:31:35;239.25;;;227.80;;
11269;SDS011;5692;48.956;9.200;2023-07-13T00:34:02;229.43;;;218.43;;
11269;SDS011;5692;48.956;9.200;2023-07-13T00:36:29;252.10;;;240.05;;
11269;SDS011;5692;48.956;9.200;2023-07-13T00:38:56;245.02;;;233.30;;
11269;SDS011;5692;48.956;9.200;2023-07-13T00:41:22;242.73;;;231.13;;
11269;SDS011;5692;48.956;9.200;2023-07-13T00:43:48;248.10;;;236.20;;
11269;SDS011;5692;48.956;9.200;2023-07-13T00:46:19;246.25;;;234.48;;
11269;SDS011;5692;48.956;9.200;2023-07-13T00:48:46;247.35;;;235.52;;
11269;SDS011;5692;48.956;9.200;2023-07-13T00:51:13;252.68;;;240.60;;
11269;SDS011;5692;48.956;9.200;2023-07-13T00:53:41;246.48;;;234.68;;
11269;SDS011;5692;48.956;9.200;2023-07-13T00:56:07;247.82;;;235.98;;
11269;SDS011;5692;48.956;9.200;2023-07-13T00:58:34;236.35;;;225.05;;
11269;SDS011;5692;48.956;9.200;2023-07-13T01:01:00;270.23;;;257.33;;
11269;SDS011;5692;48.956;9.200;2023-07-13T01:03:26;258.90;;;246.52;;
11269;SDS011;5692;48.956;9.200;2023-07-13T01:05:53;248.82;;;236.93;;
11269;SDS011;5692;48.956;9.200;2023-07-13T01:08:20;261.17;;;248.70;;
11269;SDS011;5692;48.956;9.200;2023-07-13T01:10:56;243.05;;;231.43;;
11269;SDS011;5692;48.956;9.200;2023-07-13T01:13:23;264.27;;;251.65;;
11269;SDS011;5692;48.956;9.200;2023-07-13T01:15:49;244.25;;;232.55;;
11269;SDS011;5692;48.956;9.200;2023-07-13T01:18:26;227.27;;;216.40;;
11269;SDS011;5692;48.956;9.200;2023-07-13T01:23:21;245.43;;;233.70;;
11269;SDS011;5692;48.956;9.200;2023-07-13T01:25:47;240.68;;;229.18;;
11269;SDS011;5692;48.956;9.200;2023-07-13T01:28:14;249.65;;;237.75;;
11269;SDS011;5692;48.956;9.200;2023-07-13T01:30:41;258.00;;;245.68;;
11269;SDS011;5692;48.956;9.200;2023-07-13T01:33:10;268.15;;;255.35;;
11269;SDS011;5692;48.956;9.200;2023-07-13T01:35:37;263.23;;;250.65;;
11269;SDS011;5692;48.956;9.200;2023-07-13T01:38:03;244.47;;;232.77;;
11269;SDS011;5692;48.956;9.200;2023-07-13T01:40:30;264.13;;;251.48;;
11269;SDS011;5692;48.956;9.200;2023-07-13T01:42:57;235.65;;;224.38;;
11269;SDS011;5692;48.956;9.200;2023-07-13T01:45:23;250.00;;;238.05;;
11269;SDS011;5692;48.956;9.200;2023-07-13T01:47:49;237.00;;;225.70;;
11269;SDS011;5692;48.956;9.200;2023-07-13T01:50:15;246.13;;;234.35;;
11269;SDS011;5692;48.956;9.200;2023-07-13T01:52:41;243.65;;;232.00;;
11269;SDS011;5692;48.956;9.200;2023-07-13T01:55:08;236.85;;;225.55;;
11269;SDS011;5692;48.956;9.200;2023-07-13T01:57:34;223.70;;;213.00;;
11269;SDS011;5692;48.956;9.200;2023-07-13T02:00:02;223.90;;;213.20;;
11269;SDS011;5692;48.956;9.200;2023-07-13T02:02:31;249.30;;;237.38;;
11269;SDS011;5692;48.956;9.200;2023-07-13T02:04:57;220.02;;;209.50;;
11269;SDS011;5692;48.956;9.200;2023-07-13T02:07:23;230.63;;;219.63;;
11269;SDS011;5692;48.956;9.200;2023-07-13T02:09:49;231.40;;;220.32;;
11269;SDS011;5692;48.956;9.200;2023-07-13T02:12:15;225.77;;;214.97;;
11269;SDS011;5692;48.956;9.200;2023-07-13T02:14:41;230.17;;;219.17;;
11269;SDS011;5692;48.956;9.200;2023-07-13T02:17:09;229.13;;;218.15;;
11269;SDS011;5692;48.956;9.200;2023-07-13T02:19:35;236.73;;;225.40;;
11269;SDS011;5692;48.956;9.200;2023-07-13T02:22:01;227.13;;;216.25;;
11269;SDS011;5692;48.956;9.200;2023-07-13T02:24:27;245.02;;;233.30;;
11269;SDS011;5692;48.956;9.200;2023-07-13T02:26:53;240.18;;;228.70;;
11269;SDS011;5692;48.956;9.200;2023-07-13T02:29:19;234.18;;;222.98;;
11269;SDS011;5692;48.956;9.200;2023-07-13T02:31:45;239.35;;;227.90;;
11269;SDS011;5692;48.956;9.200;2023-07-13T02:34:11;225.40;;;214.60;;
11269;SDS011;5692;48.956;9.200;2023-07-13T02:36:37;231.63;;;220.52;;
11269;SDS011;5692;48.956;9.200;2023-07-13T02:39:04;256.83;;;244.52;;
11269;SDS011;5692;48.956;9.200;2023-07-13T02:41:30;255.73;;;243.52;;
11269;SDS011;5692;48.956;9.200;2023-07-13T02:43:57;245.98;;;234.20;;
11269;SDS011;5692;48.956;9.200;2023-07-13T02:46:29;245.45;;;233.73;;
11269;SDS011;5692;48.956;9.200;2023-07-13T02:48:55;247.35;;;235.52;;
11269;SDS011;5692;48.956;9.200;2023-07-13T02:51:21;234.23;;;223.03;;
11269;SDS011;5692;48.956;9.200;2023-07-13T02:53:47;239.73;;;228.27;;
11269;SDS011;5692;48.956;9.200;2023-07-13T02:56:12;225.53;;;214.73;;
11269;SDS011;5692;48.956;9.200;2023-07-13T02:58:39;231.10;;;220.05;;
11269;SDS011;5692;48.956;9.200;2023-07-13T03:01:08;227.20;;;216.33;;
11269;SDS011;5692;48.956;9.200;2023-07-13T03:03:35;233.60;;;222.45;;
11269;SDS011;5692;48.956;9.200;2023-07-13T03:06:01;231.68;;;220.57;;
11269;SDS011;5692;48.956;9.200;2023-07-13T03:08:28;242.70;;;231.10;;
11269;SDS011;5692;48.956;9.200;2023-07-13T03:11:01;222.52;;;211.88;;
11269;SDS011;5692;48.956;9.200;2023-07-13T03:13:27;229.57;;;218.60;;
11269;SDS011;5692;48.956;9.200;2023-07-13T03:15:53;212.20;;;202.05;;
11269;SDS011;5692;48.956;9.200;2023-07-13T03:18:19;228.50;;;217.60;;
11269;SDS011;5692;48.956;9.200;2023-07-13T03:20:45;217.80;;;207.40;;
11269;SDS011;5692;48.956;9.200;2023-07-13T03:23:11;217.40;;;207.00;;
11269;SDS011;5692;48.956;9.200;2023-07-13T03:25:37;216.90;;;206.50;;
11269;SDS011;5692;48.956;9.200;2023-07-13T03:28:03;221.02;;;210.43;;
11269;SDS011;5692;48.956;9.200;2023-07-13T03:30:30;215.10;;;204.82;;
11269;SDS011;5692;48.956;9.200;2023-07-13T03:32:56;228.00;;;217.10;;
11269;SDS011;5692;48.956;9.200;2023-07-13T03:35:22;223.47;;;212.77;;
11269;SDS011;5692;48.956;9.200;2023-07-13T03:37:48;226.33;;;215.53;;
11269;SDS011;5692;48.956;9.200;2023-07-13T03:40:14;228.25;;;217.32;;
11269;SDS011;5692;48.956;9.200;2023-07-13T03:42:40;229.93;;;218.93;;
11269;SDS011;5692;48.956;9.200;2023-07-13T03:45:06;219.43;;;208.93;;
11269;SDS011;5692;48.956;9.200;2023-07-13T03:47:32;215.20;;;204.90;;
11269;SDS011;5692;48.956;9.200;2023-07-13T03:49:58;225.30;;;214.50;;
11269;SDS011;5692;48.956;9.200;2023-07-13T03:52:24;219.27;;;208.77;;
11269;SDS011;5692;48.956;9.200;2023-07-13T03:54:50;220.40;;;209.87;;
11269;SDS011;5692;48.956;9.200;2023-07-13T03:57:16;219.60;;;209.07;;
11269;SDS011;5692;48.956;9.200;2023-07-13T03:59:42;210.73;;;200.63;;
11269;SDS011;5692;48.956;9.200;2023-07-13T04:02:09;218.07;;;207.67;;
11269;SDS011;5692;48.956;9.200;2023-07-13T04:04:37;223.27;;;212.57;;
11269;SDS011;5692;48.956;9.200;2023-07-13T04:07:05;215.77;;;205.48;;
11269;SDS011;5692;48.956;9.200;2023-07-13T04:09:33;223.85;;;213.15;;
11269;SDS011;5692;48.956;9.200;2023-07-13T04:12:03;216.35;;;206.00;;
11269;SDS011;5692;48.956;9.200;2023-07-13T04:14:30;205.48;;;195.65;;
11269;SDS011;5692;48.956;9.200;2023-07-13T04:16:56;210.87;;;200.77;;
11269;SDS011;5692;48.956;9.200;2023-07-13T04:19:22;213.07;;;202.88;;
11269;SDS011;5692;48.956;9.200;2023-07-13T04:21:48;213.38;;;203.15;;
11269;SDS011;5692;48.956;9.200;2023-07-13T04:24:14;213.43;;;203.23;;
11269;SDS011;5692;48.956;9.200;2023-07-13T04:26:40;225.00;;;214.25;;
11269;SDS011;5692;48.956;9.200;2023-07-13T04:29:07;232.32;;;221.23;;
11269;SDS011;5692;48.956;9.200;2023-07-13T04:31:33;233.27;;;222.13;;
11269;SDS011;5692;48.956;9.200;2023-07-13T04:33:59;230.77;;;219.73;;
11269;SDS011;5692;48.956;9.200;2023-07-13T04:36:25;212.02;;;201.88;;
11269;SDS011;5692;48.956;9.200;2023-07-13T04:38:54;207.38;;;197.48;;
11269;SDS011;5692;48.956;9.200;2023-07-13T04:41:21;218.90;;;208.43;;
11269;SDS011;5692;48.956;9.200;2023-07-13T04:43:50;211.80;;;201.68;;
11269;SDS011;5692;48.956;9.200;2023-07-13T04:46:16;227.98;;;217.07;;
11269;SDS011;5692;48.956;9.200;2023-07-13T04:48:45;221.68;;;211.07;;
11269;SDS011;5692;48.956;9.200;2023-07-13T04:51:11;235.55;;;224.27;;
11269;SDS011;5692;48.956;9.200;2023-07-13T04:53:37;233.33;;;222.17;;
11269;SDS011;5692;48.956;9.200;2023-07-13T04:56:03;236.40;;;225.10;;
11269;SDS011;5692;48.956;9.200;2023-07-13T04:58:29;241.15;;;229.60;;
11269;SDS011;5692;48.956;9.200;2023-07-13T05:00:59;218.18;;;207.75;;
11269;SDS011;5692;48.956;9.200;2023-07-13T05:03:26;230.50;;;219.48;;
11269;SDS011;5692;48.956;9.200;2023-07-13T05:05:59;220.83;;;210.27;;
11269;SDS011;5692;48.956;9.200;2023-07-13T05:08:25;225.70;;;214.90;;
11269;SDS011;5692;48.956;9.200;2023-07-13T05:10:51;215.40;;;205.10;;
11269;SDS011;5692;48.956;9.200;2023-07-13T05:13:18;239.35;;;227.90;;
11269;SDS011;5692;48.956;9.200;2023-07-13T05:15:45;239.95;;;228.48;;
11269;SDS011;5692;48.956;9.200;2023-07-13T05:18:11;234.90;;;223.65;;
11269;SDS011;5692;48.956;9.200;2023-07-13T05:20:37;233.75;;;222.55;;
11269;SDS011;5692;48.956;9.200;2023-07-13T05:23:03;237.80;;;226.43;;
11269;SDS011;5692;48.956;9.200;2023-07-13T05:25:30;233.75;;;222.55;;
11269;SDS011;5692;48.956;9.200;2023-07-13T05:27:58;230.73;;;219.68;;
11269;SDS011;5692;48.956;9.200;2023-07-13T05:30:24;239.47;;;228.00;;
11269;SDS011;5692;48.956;9.200;2023-07-13T05:32:53;248.90;;;237.00;;
11269;SDS011;5692;48.956;9.200;2023-07-13T05:35:19;232.60;;;221.47;;
11269;SDS011;5692;48.956;9.200;2023-07-13T05:37:45;240.07;;;228.60;;
11269;SDS011;5692;48.956;9.200;2023-07-13T05:40:11;225.47;;;214.67;;
11269;SDS011;5692;48.956;9.200;2023-07-13T05:42:37;218.03;;;207.63;;
11269;SDS011;5692;48.956;9.200;2023-07-13T05:45:05;231.40;;;220.32;;
11269;SDS011;5692;48.956;9.200;2023-07-13T05:47:33;233.40;;;222.25;;
11269;SDS011;5692;48.956;9.200;2023-07-13T05:50:00;242.40;;;230.80;;
11269;SDS011;5692;48.956;9.200;2023-07-13T05:52:26;219.07;;;208.57;;
11269;SDS011;5692;48.956;9.200;2023-07-13T05:54:52;212.23;;;202.07;;
11269;SDS011;5692;48.956;9.200;2023-07-13T05:57:18;221.23;;;210.65;;
11269;SDS011;5692;48.956;9.200;2023-07-13T05:59:44;225.37;;;214.60;;
11269;SDS011;5692;48.956;9.200;2023-07-13T06:02:10;229.50;;;218.52;;
11269;SDS011;5692;48.956;9.200;2023-07-13T06:04:36;241.13;;;229.57;;
11269;SDS011;5692;48.956;9.200;2023-07-13T06:07:02;232.63;;;221.50;;
11269;SDS011;5692;48.956;9.200;2023-07-13T06:09:28;238.27;;;226.88;;
11269;SDS011;5692;48.956;9.200;2023-07-13T06:11:54;246.57;;;234.77;;
11269;SDS011;5692;48.956;9.200;2023-07-13T06:14:20;245.27;;;233.53;;
11269;SDS011;5692;48.956;9.200;2023-07-13T06:16:46;222.80;;;212.13;;
11269;SDS011;5692;48.956;9.200;2023-07-13T06:19:12;244.30;;;232.60;;
11269;SDS011;5692;48.956;9.200;2023-07-13T06:21:38;236.53;;;225.23;;
11269;SDS011;5692;48.956;9.200;2023-07-13T06:24:04;235.07;;;223.82;;
11269;SDS011;5692;48.956;9.200;2023-07-13T06:26:30;250.70;;;238.70;;
11269;SDS011;5692;48.956;9.200;2023-07-13T06:28:57;233.32;;;222.18;;
11269;SDS011;5692;48.956;9.200;2023-07-13T06:31:23;242.63;;;231.03;;
11269;SDS011;5692;48.956;9.200;2023-07-13T06:33:48;242.10;;;230.50;;
11269;SDS011;5692;48.956;9.200;2023-07-13T06:36:14;226.60;;;215.77;;
11269;SDS011;5692;48.956;9.200;2023-07-13T06:38:40;239.90;;;228.43;;
11269;SDS011;5692;48.956;9.200;2023-07-13T06:41:07;221.53;;;210.93;;
11269;SDS011;5692;48.956;9.200;2023-07-13T06:43:33;225.25;;;214.48;;
11269;SDS011;5692;48.956;9.200;2023-07-13T06:45:59;227.55;;;216.68;;
11269;SDS011;5692;48.956;9.200;2023-07-13T06:48:26;234.50;;;223.25;;
11269;SDS011;5692;48.956;9.200;2023-07-13T06:50:52;233.45;;;222.27;;
11269;SDS011;5692;48.956;9.200;2023-07-13T06:53:18;235.70;;;224.43;;
11269;SDS011;5692;48.956;9.200;2023-07-13T06:55:45;245.90;;;234.15;;
11269;SDS011;5692;48.956;9.200;2023-07-13T06:58:11;235.85;;;224.55;;
11269;SDS011;5692;48.956;9.200;2023-07-13T07:00:37;235.43;;;224.15;;
11269;SDS011;5692;48.956;9.200;2023-07-13T07:03:05;236.15;;;224.85;;
11269;SDS011;5692;48.956;9.200;2023-07-13T07:05:31;243.63;;;231.97;;
11269;SDS011;5692;48.956;9.200;2023-07-13T07:07:57;235.37;;;224.10;;
11269;SDS011;5692;48.956;9.200;2023-07-13T07:10:23;255.67;;;243.47;;
11269;SDS011;5692;48.956;9.200;2023-07-13T07:12:49;264.30;;;251.65;;
11269;SDS011;5692;48.956;9.200;2023-07-13T07:15:15;239.70;;;228.20;;
11269;SDS011;5692;48.956;9.200;2023-07-13T07:17:42;234.32;;;223.10;;
11269;SDS011;5692;48.956;9.200;2023-07-13T07:20:08;246.20;;;234.40;;
11269;SDS011;5692;48.956;9.200;2023-07-13T07:22:34;242.23;;;230.63;;
11269;SDS011;5692;48.956;9.200;2023-07-13T07:25:00;254.33;;;242.17;;
11269;SDS011;5692;48.956;9.200;2023-07-13T07:27:26;256.40;;;244.13;;
11269;SDS011;5692;48.956;9.200;2023-07-13T07:29:52;264.23;;;251.60;;
11269;SDS011;5692;48.956;9.200;2023-07-13T07:32:19;247.75;;;235.90;;
11269;SDS011;5692;48.956;9.200;2023-07-13T07:34:45;253.55;;;241.45;;
11269;SDS011;5692;48.956;9.200;2023-07-13T07:37:12;244.38;;;232.68;;
11269;SDS011;5692;48.956;9.200;2023-07-13T07:39:38;268.33;;;255.48;;
11269;SDS011;5692;48.956;9.200;2023-07-13T07:42:04;251.23;;;239.23;;
11269;SDS011;5692;48.956;9.200;2023-07-13T07:44:31;261.20;;;248.70;;
11269;SDS011;5692;48.956;9.200;2023-07-13T07:46:57;261.52;;;249.02;;
11269;SDS011;5692;48.956;9.200;2023-07-13T07:49:23;256.77;;;244.47;;
11269;SDS011;5692;48.956;9.200;2023-07-13T07:51:49;269.15;;;256.27;;
11269;SDS011;5692;48.956;9.200;2023-07-13T07:54:15;256.37;;;244.13;;
11269;SDS011;5692;48.956;9.200;2023-07-13T07:56:41;271.90;;;258.90;;
11269;SDS011;5692;48.956;9.200;2023-07-13T07:59:07;258.42;;;246.05;;
11269;SDS011;5692;48.956;9.200;2023-07-13T08:01:33;269.60;;;256.70;;
11269;SDS011;5692;48.956;9.200;2023-07-13T08:03:59;266.57;;;253.83;;
11269;SDS011;5692;48.956;9.200;2023-07-13T08:06:25;256.00;;;243.77;;
11269;SDS011;5692;48.956;9.200;2023-07-13T08:08:51;258.73;;;246.35;;
11269;SDS011;5692;48.956;9.200;2023-07-13T08:11:17;268.50;;;255.70;;
11269;SDS011;5692;48.956;9.200;2023-07-13T08:13:43;260.33;;;247.90;;
11269;SDS011;5692;48.956;9.200;2023-07-13T08:16:09;254.07;;;241.90;;
11269;SDS011;5692;48.956;9.200;2023-07-13T08:18:36;270.73;;;257.80;;
11269;SDS011;5692;48.956;9.200;2023-07-13T08:21:03;261.10;;;248.60;;
11269;SDS011;5692;48.956;9.200;2023-07-13T08:23:29;262.90;;;250.33;;
11269;SDS011;5692;48.956;9.200;2023-07-13T08:25:55;284.10;;;270.50;;
11269;SDS011;5692;48.956;9.200;2023-07-13T08:28:22;260.40;;;247.97;;
11269;SDS011;5692;48.956;9.200;2023-07-13T08:30:48;265.80;;;253.10;;
11269;SDS011;5692;48.956;9.200;2023-07-13T08:33:20;276.17;;;262.97;;
11269;SDS011;5692;48.956;9.200;2023-07-13T08:35:49;269.90;;;257.00;;
11269;SDS011;5692;48.956;9.200;2023-07-13T08:38:16;273.43;;;260.37;;
11269;SDS011;5692;48.956;9.200;2023-07-13T08:40:42;281.27;;;267.83;;
11269;SDS011;5692;48.956;9.200;2023-07-13T08:43:09;280.80;;;267.37;;
11269;SDS011;5692;48.956;9.200;2023-07-13T08:45:43;283.57;;;270.00;;
11269;SDS011;5692;48.956;9.200;2023-07-13T08:48:11;269.50;;;256.63;;
11269;SDS011;5692;48.956;9.200;2023-07-13T08:50:46;289.40;;;275.60;;
11269;SDS011;5692;48.956;9.200;2023-07-13T08:53:14;266.07;;;253.33;;
11269;SDS011;5692;48.956;9.200;2023-07-13T08:55:41;265.83;;;253.13;;
11269;SDS011;5692;48.956;9.200;2023-07-13T08:58:11;289.40;;;275.60;;
11269;SDS011;5692;48.956;9.200;2023-07-13T09:03:23;266.20;;;253.47;;
11269;SDS011;5692;48.956;9.200;2023-07-13T09:05:54;280.40;;;267.00;;
11269;SDS011;5692;48.956;9.200;2023-07-13T09:13:55;265.13;;;252.47;;
11269;SDS011;5692;48.956;9.200;2023-07-13T09:16:22;279.53;;;266.13;;
11269;SDS011;5692;48.956;9.200;2023-07-13T09:18:49;282.67;;;269.13;;
11269;SDS011;5692;48.956;9.200;2023-07-13T09:21:23;278.30;;;265.00;;
11269;SDS011;5692;48.956;9.200;2023-07-13T09:23:53;283.90;;;270.30;;
11269;SDS011;5692;48.956;9.200;2023-07-13T09:26:23;273.97;;;260.87;;
11269;SDS011;5692;48.956;9.200;2023-07-13T09:28:55;282.40;;;268.90;;
11269;SDS011;5692;48.956;9.200;2023-07-13T09:31:30;277.10;;;263.87;;
11269;SDS011;5692;48.956;9.200;2023-07-13T09:33:58;259.10;;;246.70;;
11269;SDS011;5692;48.956;9.200;2023-07-13T09:36:26;270.93;;;258.00;;
11269;SDS011;5692;48.956;9.200;2023-07-13T09:39:37;278.17;;;264.87;;
11269;SDS011;5692;48.956;9.200;2023-07-13T09:41:53;273.67;;;260.57;;
11269;SDS011;5692;48.956;9.200;2023-07-13T09:44:33;277.50;;;264.27;;
11269;SDS011;5692;48.956;9.200;2023-07-13T09:47:00;286.00;;;272.33;;
11269;SDS011;5692;48.956;9.200;2023-07-13T09:49:27;272.10;;;259.10;;
11269;SDS011;5692;48.956;9.200;2023-07-13T09:52:01;280.73;;;267.30;;
11269;SDS011;5692;48.956;9.200;2023-07-13T09:54:28;269.03;;;256.17;;
11269;SDS011;5692;48.956;9.200;2023-07-13T09:56:55;279.20;;;265.87;;
11269;SDS011;5692;48.956;9.200;2023-07-13T09:59:22;269.47;;;256.57;;
11269;SDS011;5692;48.956;9.200;2023-07-13T10:01:49;283.97;;;270.40;;
11269;SDS011;5692;48.956;9.200;2023-07-13T10:04:19;304.23;;;289.73;;
11269;SDS011;5692;48.956;9.200;2023-07-13T10:06:45;286.83;;;273.13;;
11269;SDS011;5692;48.956;9.200;2023-07-13T10:09:15;273.90;;;260.80;;
11269;SDS011;5692;48.956;9.200;2023-07-13T10:11:41;285.77;;;272.10;;
11269;SDS011;5692;48.956;9.200;2023-07-13T10:14:20;288.93;;;275.13;;
11269;SDS011;5692;48.956;9.200;2023-07-13T10:16:51;308.23;;;293.53;;
11269;SDS011;5692;48.956;9.200;2023-07-13T10:21:53;289.33;;;275.50;;
11269;SDS011;5692;48.956;9.200;2023-07-13T10:24:25;319.07;;;303.83;;
11269;SDS011;5692;48.956;9.200;2023-07-13T10:29:29;299.60;;;285.30;;
11269;SDS011;5692;48.956;9.200;2023-07-13T10:31:58;294.07;;;280.00;;
11269;SDS011;5692;48.956;9.200;2023-07-13T10:34:25;317.13;;;301.97;;
11269;SDS011;5692;48.956;9.200;2023-07-13T10:36:51;304.00;;;289.50;;
11269;SDS011;5692;48.956;9.200;2023-07-13T10:39:18;288.47;;;274.67;;
11269;SDS011;5692;48.956;9.200;2023-07-13T10:41:45;291.77;;;277.83;;
11269;SDS011;5692;48.956;9.200;2023-07-13T10:44:16;303.63;;;289.13;;
11269;SDS011;5692;48.956;9.200;2023-07-13T10:46:43;299.03;;;284.73;;
11269;SDS011;5692;48.956;9.200;2023-07-13T10:49:10;291.47;;;277.57;;
11269;SDS011;5692;48.956;9.200;2023-07-13T10:51:36;283.47;;;269.93;;
11269;SDS011;5692;48.956;9.200;2023-07-13T10:54:21;304.30;;;289.77;;
11269;SDS011;5692;48.956;9.200;2023-07-13T10:56:53;295.77;;;281.63;;
11269;SDS011;5692;48.956;9.200;2023-07-13T10:59:24;291.77;;;277.83;;
11269;SDS011;5692;48.956;9.200;2023-07-13T11:01:56;301.50;;;287.10;;
11269;SDS011;5692;48.956;9.200;2023-07-13T11:04:23;288.50;;;274.70;;
11269;SDS011;5692;48.956;9.200;2023-07-13T11:06:50;293.10;;;279.10;;
11269;SDS011;5692;48.956;9.200;2023-07-13T11:11:44;266.23;;;253.53;;
11269;SDS011;5692;48.956;9.200;2023-07-13T11:16:51;293.10;;;279.10;;
11269;SDS011;5692;48.956;9.200;2023-07-13T11:24:49;6.20;;;3.97;;
11269;SDS011;5692;48.956;9.200;2023-07-13T11:27:21;5.23;;;3.40;;
11269;SDS011;5692;48.956;9.200;2023-07-13T11:29:47;8.13;;;2.40;;
11269;SDS011;5692;48.956;9.200;2023-07-13T11:32:30;190.53;;;181.40;;
11269;SDS011;5692;48.956;9.200;2023-07-13T11:34:56;198.87;;;189.33;;
11269;SDS011;5692;48.956;9.200;2023-07-13T11:37:23;265.37;;;252.67;;
11269;SDS011;5692;48.956;9.200;2023-07-13T11:39:50;278.90;;;265.60;;
11269;SDS011;5692;48.956;9.200;2023-07-13T11:42:18;294.67;;;280.57;;
11269;SDS011;5692;48.956;9.200;2023-07-13T11:44:48;306.83;;;292.13;;
11269;SDS011;5692;48.956;9.200;2023-07-13T11:47:17;292.00;;;278.03;;
11269;SDS011;5692;48.956;9.200;2023-07-13T11:49:44;276.53;;;263.30;;
11269;SDS011;5692;48.956;9.200;2023-07-13T11:52:21;8.97;;;2.23;;
11269;SDS011;5692;48.956;9.200;2023-07-13T11:57:33;7.03;;;2.73;;
11269;SDS011;5692;48.956;9.200;2023-07-13T12:00:00;4.27;;;1.20;;
11269;SDS011;5692;48.956;9.200;2023-07-13T12:02:34;5.60;;;2.40;;
11269;SDS011;5692;48.956;9.200;2023-07-13T12:05:02;126.57;;;120.47;;
11269;SDS011;5692;48.956;9.200;2023-07-13T12:07:30;132.23;;;125.90;;
11269;SDS011;5692;48.956;9.200;2023-07-13T12:10:03;148.70;;;141.60;;
11269;SDS011;5692;48.956;9.200;2023-07-13T12:12:36;140.00;;;133.30;;
11269;SDS011;5692;48.956;9.200;2023-07-13T12:15:06;146.53;;;139.53;;
11269;SDS011;5692;48.956;9.200;2023-07-13T12:17:33;128.13;;;121.97;;
11269;SDS011;5692;48.956;9.200;2023-07-13T12:20:00;146.67;;;139.67;;
11269;SDS011;5692;48.956;9.200;2023-07-13T12:22:26;152.17;;;144.87;;
11269;SDS011;5692;48.956;9.200;2023-07-13T12:24:52;163.67;;;155.87;;
11269;SDS011;5692;48.956;9.200;2023-07-13T12:27:23;143.90;;;137.00;;
11269;SDS011;5692;48.956;9.200;2023-07-13T12:29:51;153.07;;;145.73;;
11269;SDS011;5692;48.956;9.200;2023-07-13T12:32:18;142.83;;;135.97;;
11269;SDS011;5692;48.956;9.200;2023-07-13T12:34:54;100.27;;;95.47;;
11269;SDS011;5692;48.956;9.200;2023-07-13T12:37:21;131.77;;;125.43;;
11269;SDS011;5692;48.956;9.200;2023-07-13T12:39:47;120.87;;;115.07;;
11269;SDS011;5692;48.956;9.200;2023-07-13T12:42:19;127.40;;;121.27;;
11269;SDS011;5692;48.956;9.200;2023-07-13T12:44:52;108.00;;;102.80;;
11269;SDS011;5692;48.956;9.200;2023-07-13T12:47:19;122.13;;;116.27;;
11269;SDS011;5692;48.956;9.200;2023-07-13T12:49:50;115.27;;;109.73;;
11269;SDS011;5692;48.956;9.200;2023-07-13T12:52:19;110.73;;;105.43;;
11269;SDS011;5692;48.956;9.200;2023-07-13T12:54:54;5.47;;;2.20;;
11269;SDS011;5692;48.956;9.200;2023-07-13T12:57:23;4.97;;;1.33;;
11269;SDS011;5692;48.956;9.200;2023-07-13T12:59:53;5.83;;;1.80;;
11269;SDS011;5692;48.956;9.200;2023-07-13T13:02:29;6.30;;;1.27;;
11269;SDS011;5692;48.956;9.200;2023-07-13T13:04:56;5.00;;;2.03;;
11269;SDS011;5692;48.956;9.200;2023-07-13T13:07:23;64.03;;;60.93;;
11269;SDS011;5692;48.956;9.200;2023-07-13T13:09:49;102.20;;;97.30;;
11269;SDS011;5692;48.956;9.200;2023-07-13T13:12:16;97.33;;;92.67;;
11269;SDS011;5692;48.956;9.200;2023-07-13T13:14:43;96.57;;;91.93;;
11269;SDS011;5692;48.956;9.200;2023-07-13T13:17:22;87.33;;;83.13;;
11269;SDS011;5692;48.956;9.200;2023-07-13T13:19:54;73.80;;;70.23;;
11269;SDS011;5692;48.956;9.200;2023-07-13T13:22:20;115.00;;;109.50;;
11269;SDS011;5692;48.956;9.200;2023-07-13T13:24:47;264.80;;;252.13;;
11269;SDS011;5692;48.956;9.200;2023-07-13T13:27:16;285.57;;;271.93;;
11269;SDS011;5692;48.956;9.200;2023-07-13T13:29:43;304.27;;;289.73;;
11269;SDS011;5692;48.956;9.200;2023-07-13T13:32:13;321.43;;;306.07;;
11269;SDS011;5692;48.956;9.200;2023-07-13T13:34:39;295.63;;;281.53;;
11269;SDS011;5692;48.956;9.200;2023-07-13T13:37:19;291.33;;;277.40;;
11269;SDS011;5692;48.956;9.200;2023-07-13T13:39:45;315.23;;;300.17;;
11269;SDS011;5692;48.956;9.200;2023-07-13T13:42:12;316.60;;;301.47;;
11269;SDS011;5692;48.956;9.200;2023-07-13T13:44:38;292.93;;;278.93;;
11269;SDS011;5692;48.956;9.200;2023-07-13T13:47:07;297.40;;;283.20;;
11269;SDS011;5692;48.956;9.200;2023-07-13T13:49:39;292.27;;;278.27;;
11269;SDS011;5692;48.956;9.200;2023-07-13T13:52:05;308.07;;;293.37;;
11269;SDS011;5692;48.956;9.200;2023-07-13T13:54:31;317.97;;;302.77;;
11269;SDS011;5692;48.956;9.200;2023-07-13T13:56:59;281.17;;;267.73;;
11269;SDS011;5692;48.956;9.200;2023-07-13T13:59:25;321.53;;;306.13;;
11269;SDS011;5692;48.956;9.200;2023-07-13T14:01:51;312.50;;;297.57;;
11269;SDS011;5692;48.956;9.200;2023-07-13T14:04:18;292.50;;;278.50;;
11269;SDS011;5692;48.956;9.200;2023-07-13T14:06:44;285.03;;;271.40;;
11269;SDS011;5692;48.956;9.200;2023-07-13T14:09:12;288.70;;;274.90;;
11269;SDS011;5692;48.956;9.200;2023-07-13T14:11:39;288.03;;;274.27;;
11269;SDS011;5692;48.956;9.200;2023-07-13T14:14:16;297.10;;;282.90;;
11269;SDS011;5692;48.956;9.200;2023-07-13T14:16:43;296.23;;;282.07;;
11269;SDS011;5692;48.956;9.200;2023-07-13T14:19:11;302.10;;;287.67;;
11269;SDS011;5692;48.956;9.200;2023-07-13T14:21:38;287.83;;;274.07;;
11269;SDS011;5692;48.956;9.200;2023-07-13T14:24:05;292.70;;;278.70;;
11269;SDS011;5692;48.956;9.200;2023-07-13T14:26:32;281.27;;;267.83;;
11269;SDS011;5692;48.956;9.200;2023-07-13T14:29:01;278.33;;;265.03;;
11269;SDS011;5692;48.956;9.200;2023-07-13T14:31:27;282.03;;;268.53;;
11269;SDS011;5692;48.956;9.200;2023-07-13T14:33:54;274.63;;;261.50;;
11269;SDS011;5692;48.956;9.200;2023-07-13T14:38:46;272.13;;;259.13;;
11269;SDS011;5692;48.956;9.200;2023-07-13T14:41:12;271.93;;;258.93;;
11269;SDS011;5692;48.956;9.200;2023-07-13T14:43:38;267.13;;;254.37;;
11269;SDS011;5692;48.956;9.200;2023-07-13T14:46:04;278.37;;;265.07;;